Time;durP1;ratioP1;P1;durP2;ratioP2;P2;SDS_P1;SDS_P2;PMS_P1;PMS_P2;Temp;Humidity;BMP_temperature;BMP_pressure;BME280_temperature;BME280_humidity;BME280_pressure;Samples;Min_cycle;Max_cycle;Signal;HPM_P1;HPM_P2
2021/08/04 00:00:52;;;;;;;2.97;1.90;;;17.40;99.90;;;;;;4954448;29;20444;-89
2021/08/04 00:03:19;;;;;;;2.73;2.33;;;17.40;99.90;;;;;;4932257;29;20490;-90
2021/08/04 00:05:45;;;;;;;2.07;1.80;;;17.40;99.90;;;;;;4917643;29;20460;-89
2021/08/04 00:08:12;;;;;;;3.27;2.37;;;17.30;99.90;;;;;;4917271;29;20711;-89
2021/08/04 00:10:39;;;;;;;3.00;2.57;;;17.20;99.90;;;;;;4916888;29;20458;-89
2021/08/04 00:13:05;;;;;;;2.53;2.33;;;17.20;99.90;;;;;;4929788;29;20496;-89
2021/08/04 00:15:34;;;;;;;1.70;1.60;;;17.10;99.90;;;;;;4937746;29;20450;-88
2021/08/04 00:18:00;;;;;;;2.63;2.10;;;17.10;99.90;;;;;;4930439;29;20464;-88
2021/08/04 00:20:27;;;;;;;2.63;2.40;;;17.10;99.90;;;;;;4920840;29;20455;-89
2021/08/04 00:22:54;;;;;;;3.73;2.57;;;17.10;99.90;;;;;;4942869;29;20445;-88
2021/08/04 00:25:20;;;;;;;3.43;2.73;;;17.00;99.90;;;;;;4938314;29;20581;-89
2021/08/04 00:27:47;;;;;;;2.60;2.10;;;16.90;99.90;;;;;;4937114;29;20454;-89
2021/08/04 00:30:14;;;;;;;3.00;2.60;;;16.80;99.90;;;;;;4936085;29;20450;-89
2021/08/04 00:32:42;;;;;;;3.27;2.53;;;16.80;99.90;;;;;;4932025;29;20491;-89
2021/08/04 00:35:10;;;;;;;3.10;2.60;;;16.80;99.90;;;;;;4917230;29;20466;-90
2021/08/04 00:37:37;;;;;;;3.50;2.40;;;16.80;99.90;;;;;;4915987;29;20466;-90
2021/08/04 00:40:04;;;;;;;3.10;2.70;;;16.80;99.90;;;;;;4931745;29;20795;-89
2021/08/04 00:42:31;;;;;;;3.70;2.27;;;16.90;99.90;;;;;;4930306;29;20446;-89
2021/08/04 00:44:58;;;;;;;3.70;2.83;;;16.90;99.90;;;;;;4918347;29;20846;-89
2021/08/04 00:47:26;;;;;;;2.70;2.10;;;16.90;99.90;;;;;;4931767;29;20938;-89
2021/08/04 00:49:54;;;;;;;2.90;2.33;;;16.90;99.90;;;;;;4934700;29;20457;-89
2021/08/04 00:52:21;;;;;;;3.40;2.60;;;16.90;99.90;;;;;;4934605;29;20495;-89
2021/08/04 00:54:48;;;;;;;3.37;2.63;;;16.90;99.90;;;;;;4934668;29;20473;-90
2021/08/04 00:57:14;;;;;;;3.73;2.57;;;17.00;99.90;;;;;;4924674;29;20459;-89
2021/08/04 00:59:41;;;;;;;3.43;3.13;;;16.90;99.90;;;;;;4915900;29;20843;-89
2021/08/04 01:02:14;;;;;;;3.57;2.53;;;16.90;99.90;;;;;;4925138;29;20491;-89
2021/08/04 01:04:47;;;;;;;2.20;2.00;;;16.90;99.90;;;;;;4917253;29;20486;-89
2021/08/04 01:07:22;;;;;;;3.50;2.40;;;16.80;99.90;;;;;;4921771;29;20942;-89
2021/08/04 01:09:50;;;;;;;3.20;2.30;;;16.80;99.90;;;;;;4927280;29;20968;-89
2021/08/04 01:12:21;;;;;;;2.80;2.50;;;16.80;99.90;;;;;;4939886;29;20489;-89
2021/08/04 01:14:50;;;;;;;2.80;2.60;;;16.90;99.90;;;;;;4916462;29;20853;-90
2021/08/04 01:17:18;;;;;;;3.30;3.00;;;16.90;99.90;;;;;;4916312;29;20457;-89
2021/08/04 01:20:09;;;;;;;5.03;2.60;;;16.90;99.90;;;;;;4922436;29;20489;-89
2021/08/04 01:22:48;;;;;;;3.03;2.73;;;16.80;99.90;;;;;;4933624;29;20973;-90
2021/08/04 01:25:17;;;;;;;5.97;2.50;;;16.90;99.90;;;;;;4920161;29;20473;-89
2021/08/04 01:27:47;;;;;;;3.57;2.47;;;16.90;99.90;;;;;;4916563;29;20455;-88
2021/08/04 01:30:14;;;;;;;3.83;2.90;;;16.90;99.90;;;;;;4916814;29;20448;-90
2021/08/04 01:32:42;;;;;;;4.97;3.70;;;16.90;99.90;;;;;;4921091;29;20566;-89
2021/08/04 01:35:10;;;;;;;3.30;2.87;;;17.00;99.90;;;;;;4936214;29;20505;-90
2021/08/04 01:37:38;;;;;;;2.60;2.33;;;16.90;99.90;;;;;;4934463;29;20463;-89
2021/08/04 01:40:08;;;;;;;7.10;2.73;;;16.90;99.90;;;;;;4947405;29;20970;-89
2021/08/04 01:42:38;;;;;;;2.93;2.73;;;16.90;99.90;;;;;;4921926;29;20450;-89
2021/08/04 01:45:07;;;;;;;3.97;3.10;;;16.90;99.90;;;;;;4934909;29;20497;-90
2021/08/04 01:47:35;;;;;;;3.67;2.90;;;16.90;99.90;;;;;;4934393;29;20465;-89
2021/08/04 01:50:02;;;;;;;3.20;2.70;;;16.90;99.90;;;;;;4936971;29;20454;-89
2021/08/04 01:52:29;;;;;;;3.23;2.87;;;16.90;99.90;;;;;;4929889;29;20485;-90
2021/08/04 01:54:57;;;;;;;3.73;2.80;;;16.90;99.90;;;;;;4940741;29;20477;-89
2021/08/04 01:57:25;;;;;;;3.73;2.90;;;16.90;99.90;;;;;;4942129;29;20479;-89
2021/08/04 01:59:53;;;;;;;4.93;4.00;;;16.90;99.90;;;;;;4938540;29;20958;-89
2021/08/04 02:02:22;;;;;;;4.47;3.30;;;16.90;99.90;;;;;;4939455;29;20494;-89
2021/08/04 02:04:51;;;;;;;2.97;2.70;;;16.90;99.90;;;;;;4938185;29;20554;-89
2021/08/04 02:07:26;;;;;;;4.30;2.90;;;17.00;99.90;;;;;;4949112;29;20458;-90
2021/08/04 02:09:56;;;;;;;2.70;2.50;;;16.90;99.90;;;;;;4939336;29;20476;-89
2021/08/04 02:12:23;;;;;;;6.00;4.00;;;17.00;99.90;;;;;;4938996;29;20916;-90
2021/08/04 02:14:56;;;;;;;3.23;2.93;;;16.90;99.90;;;;;;4938132;29;20481;-90
2021/08/04 02:17:35;;;;;;;2.67;2.10;;;16.90;99.90;;;;;;4937980;29;20456;-89
2021/08/04 02:20:07;;;;;;;3.13;2.33;;;16.90;99.90;;;;;;4945197;29;20818;-90
2021/08/04 02:22:38;;;;;;;5.40;3.30;;;17.00;99.90;;;;;;4938218;29;20458;-90
2021/08/04 02:25:08;;;;;;;2.83;2.50;;;17.00;99.90;;;;;;4945549;29;20487;-89
2021/08/04 02:27:38;;;;;;;3.37;3.07;;;17.00;99.90;;;;;;4944518;29;20942;-90
2021/08/04 02:30:07;;;;;;;3.20;2.90;;;17.00;99.90;;;;;;4945280;29;20459;-89
2021/08/04 02:32:36;;;;;;;4.67;2.77;;;16.90;99.90;;;;;;4926212;29;20489;-89
2021/08/04 02:35:03;;;;;;;3.33;2.80;;;16.90;99.90;;;;;;4929886;29;20467;-88
2021/08/04 02:37:30;;;;;;;3.07;2.80;;;16.90;99.90;;;;;;4918093;29;20461;-90
2021/08/04 02:39:57;;;;;;;3.20;2.33;;;16.90;99.90;;;;;;4933666;29;20505;-90
2021/08/04 02:42:24;;;;;;;2.90;2.50;;;16.90;99.90;;;;;;4937429;29;20457;-87
2021/08/04 02:44:51;;;;;;;2.90;2.70;;;16.90;99.90;;;;;;4937511;29;20835;-90
2021/08/04 02:47:18;;;;;;;6.07;2.93;;;16.90;99.90;;;;;;4922068;29;20470;-89
2021/08/04 02:49:47;;;;;;;2.90;2.70;;;16.90;99.90;;;;;;4918403;29;20465;-89
2021/08/04 02:52:17;;;;;;;3.27;2.70;;;16.80;99.90;;;;;;4918972;29;20482;-90
2021/08/04 02:54:44;;;;;;;4.30;2.93;;;16.80;99.90;;;;;;4918259;29;20474;-89
2021/08/04 02:57:11;;;;;;;4.83;3.40;;;16.90;99.90;;;;;;4918020;29;20464;-88
2021/08/04 02:59:38;;;;;;;3.70;2.23;;;16.80;99.90;;;;;;4917649;29;20450;-89
2021/08/04 03:02:05;;;;;;;5.10;3.40;;;16.90;99.90;;;;;;4927902;29;20462;-91
2021/08/04 03:04:31;;;;;;;2.90;2.20;;;16.80;99.90;;;;;;4917894;29;20482;-90
2021/08/04 03:06:59;;;;;;;3.07;2.60;;;16.80;99.90;;;;;;4918067;29;20447;-90
2021/08/04 03:09:26;;;;;;;3.00;2.53;;;16.80;99.90;;;;;;4918055;29;20443;-89
2021/08/04 03:11:53;;;;;;;5.63;2.97;;;16.80;99.90;;;;;;4935076;29;20939;-90
2021/08/04 03:14:19;;;;;;;3.03;2.77;;;16.80;99.90;;;;;;4936884;29;20505;-90
2021/08/04 03:16:46;;;;;;;2.67;2.47;;;16.70;99.90;;;;;;4936692;29;20986;-90
2021/08/04 03:19:13;;;;;;;4.43;2.53;;;16.70;99.90;;;;;;4930084;29;20453;-89
2021/08/04 03:21:40;;;;;;;2.67;2.20;;;16.70;99.90;;;;;;4932778;29;21071;-90
2021/08/04 03:24:08;;;;;;;3.93;3.20;;;16.70;99.90;;;;;;4919477;29;20495;-90
2021/08/04 03:26:35;;;;;;;4.07;2.83;;;16.70;99.90;;;;;;4917910;29;20880;-90
2021/08/04 03:29:02;;;;;;;3.60;2.50;;;16.70;99.90;;;;;;4934724;29;20525;-90
2021/08/04 03:31:29;;;;;;;4.47;2.97;;;16.70;99.90;;;;;;4936199;29;20506;-90
2021/08/04 03:33:56;;;;;;;5.77;2.60;;;16.70;99.90;;;;;;4938471;29;20501;-90
2021/08/04 03:50:42;;;;;;;4.17;2.87;;;16.70;99.90;;;;;;4833149;29;20462;-93
2021/08/04 03:53:17;;;;;;;3.43;2.60;;;16.70;99.90;;;;;;4898156;29;20587;-93
2021/08/04 03:56:01;;;;;;;3.07;2.73;;;16.70;99.90;;;;;;4882440;29;20514;-92
2021/08/04 03:58:28;;;;;;;3.60;2.70;;;16.60;99.90;;;;;;4922797;29;20480;-92
2021/08/04 04:00:57;;;;;;;3.30;3.00;;;16.60;99.90;;;;;;4948560;29;20904;-92
2021/08/04 05:39:27;;;;;;;4.30;3.37;;;18.20;99.90;;;;;;4849498;29;20556;-92
2021/08/04 05:48:31;;;;;;;2.70;2.50;;;20.60;99.90;;;;;;4946591;29;20541;-93
2021/08/04 05:51:16;;;;;;;7.43;3.17;;;21.90;99.90;;;;;;4926481;29;20466;-93
2021/08/04 05:54:16;;;;;;;3.13;2.83;;;21.80;98.50;;;;;;4935593;29;20482;-93
2021/08/04 05:57:16;;;;;;;4.13;2.60;;;21.30;98.70;;;;;;4950189;29;20450;-90
2021/08/04 06:10:56;;;;;;;3.30;2.70;;;19.90;99.90;;;;;;4964469;29;20454;-93
2021/08/04 06:16:38;;;;;;;2.60;2.40;;;19.70;99.90;;;;;;5008349;23;20472;-93
2021/08/04 06:19:32;;;;;;;3.77;2.30;;;19.60;99.90;;;;;;4973306;28;20476;-94
2021/08/04 06:29:01;;;;;;;2.80;2.03;;;21.80;98.10;;;;;;4904609;29;20473;-93
2021/08/04 06:35:32;;;;;;;2.90;2.20;;;21.60;96.80;;;;;;4899190;29;20588;-93
2021/08/04 06:39:00;;;;;;;2.50;2.30;;;22.40;96.80;;;;;;4926363;29;20544;-93
2021/08/04 06:41:53;;;;;;;3.23;2.20;;;23.60;94.20;;;;;;4895053;29;20535;-93
2021/08/04 06:44:50;;;;;;;3.07;2.87;;;23.90;93.00;;;;;;4954757;29;20478;-93
2021/08/04 06:51:53;;;;;;;;;;;;;;;;;;;;;
2021/08/04 06:58:18;;;;;;;3.30;2.90;;;21.40;94.70;;;;;;4898785;29;20464;-93
2021/08/04 07:42:52;;;;;;;4.40;2.70;;;23.20;91.30;;;;;;4926149;29;20452;-94
2021/08/04 07:53:35;;;;;;;2.70;2.17;;;25.60;84.10;;;;;;4897707;29;20545;-93
2021/08/04 07:56:58;;;;;;;4.50;2.93;;;26.90;78.40;;;;;;4781842;30;20488;-92
2021/08/04 08:00:01;;;;;;;2.20;2.00;;;28.20;72.60;;;;;;4842527;29;20451;-92
2021/08/04 08:48:47;;;;;;;3.03;2.77;;;23.30;78.30;;;;;;4255830;26;20466;-93
2021/08/04 08:54:22;;;;;;;3.17;2.87;;;22.80;77.20;;;;;;4973439;28;20455;-94
2021/08/04 09:00:21;;;;;;;2.10;1.90;;;23.20;77.70;;;;;;4820550;29;20435;-87
2021/08/04 09:02:48;;;;;;;2.80;2.60;;;23.40;77.60;;;;;;4896558;29;20551;-86
2021/08/04 09:05:16;;;;;;;4.73;4.33;;;23.50;78.30;;;;;;4918136;29;20499;-86
2021/08/04 09:07:47;;;;;;;2.80;2.60;;;23.70;78.70;;;;;;4937568;29;20469;-86
2021/08/04 09:10:30;;;;;;;3.03;2.73;;;23.80;77.60;;;;;;4955246;28;20479;-85
2021/08/04 09:12:58;;;;;;;2.70;2.50;;;24.10;78.00;;;;;;4958691;28;20953;-85
2021/08/04 09:15:31;;;;;;;3.00;2.80;;;24.20;76.40;;;;;;4960782;28;20472;-86
2021/08/04 09:18:00;;;;;;;2.80;2.60;;;24.30;76.10;;;;;;4956318;29;20453;-86
2021/08/04 09:20:27;;;;;;;5.70;2.50;;;24.30;76.00;;;;;;4949948;28;20457;-87
2021/08/04 09:23:01;;;;;;;3.67;3.13;;;23.90;77.50;;;;;;4949937;28;20445;-86
2021/08/04 09:25:28;;;;;;;4.00;3.20;;;24.00;76.70;;;;;;4951863;29;20489;-85
2021/08/04 09:27:57;;;;;;;2.60;2.40;;;24.60;76.30;;;;;;4972279;29;20441;-85
2021/08/04 09:30:27;;;;;;;2.40;2.20;;;26.20;72.80;;;;;;4962688;28;20460;-87
2021/08/04 09:33:09;;;;;;;7.00;2.80;;;27.40;67.90;;;;;;4943207;29;20454;-88
2021/08/04 09:35:42;;;;;;;3.07;2.53;;;28.20;66.90;;;;;;4937148;29;20532;-85
2021/08/04 09:38:15;;;;;;;5.07;3.40;;;29.10;64.20;;;;;;4936989;29;20493;-87
2021/08/04 09:40:43;;;;;;;3.07;2.80;;;28.70;63.60;;;;;;4936094;29;20616;-87
2021/08/04 09:43:11;;;;;;;3.73;2.70;;;28.10;65.40;;;;;;4936400;29;20460;-87
2021/08/04 09:52:03;;;;;;;3.00;2.70;;;26.20;67.90;;;;;;4962628;29;20459;-87
2021/08/04 10:49:19;;;;;;;4.40;2.57;;;24.70;73.80;;;;;;2984112;23;20502;-87
2021/08/04 11:33:35;;;;;;;2.30;2.10;;;24.90;71.10;;;;;;4801345;29;20478;-87
2021/08/04 11:36:06;;;;;;;2.27;2.07;;;24.40;73.30;;;;;;4843796;29;20469;-85
2021/08/04 11:38:38;;;;;;;3.00;2.73;;;24.70;72.40;;;;;;4921283;29;20447;-85
2021/08/04 11:41:33;;;;;;;2.80;2.60;;;25.00;72.20;;;;;;4938997;29;20454;-85
2021/08/04 11:44:24;;;;;;;2.27;2.07;;;25.50;71.80;;;;;;4935385;29;20497;-86
2021/08/04 11:46:54;;;;;;;2.63;2.43;;;25.70;69.30;;;;;;4947103;29;20530;-84
2021/08/04 11:49:25;;;;;;;2.40;2.17;;;26.20;67.80;;;;;;4933565;29;20454;-85
2021/08/04 11:51:55;;;;;;;2.47;2.27;;;26.40;67.70;;;;;;4921941;29;20930;-84
2021/08/04 11:54:35;;;;;;;3.37;3.07;;;26.50;66.40;;;;;;4920921;29;20447;-84
2021/08/04 11:57:06;;;;;;;2.33;2.13;;;26.30;67.00;;;;;;4926375;29;20449;-84
2021/08/04 11:59:42;;;;;;;2.83;2.20;;;26.70;68.20;;;;;;4947290;29;20454;-84
2021/08/04 12:02:08;;;;;;;2.43;2.20;;;26.10;66.50;;;;;;4941810;29;20972;-84
2021/08/04 12:04:43;;;;;;;2.00;1.90;;;25.80;67.40;;;;;;4943360;29;20548;-82
2021/08/04 12:07:11;;;;;;;2.40;2.17;;;25.60;68.80;;;;;;4955196;29;20450;-85
2021/08/04 12:09:39;;;;;;;2.27;2.07;;;25.90;68.80;;;;;;4928648;29;20446;-85
2021/08/04 12:12:08;;;;;;;2.50;2.30;;;26.30;68.60;;;;;;4938518;29;20470;-85
2021/08/04 12:14:35;;;;;;;3.27;2.20;;;26.80;67.20;;;;;;4926109;29;20470;-85
2021/08/04 12:17:03;;;;;;;3.20;2.60;;;27.10;65.70;;;;;;4920993;29;20459;-86
2021/08/04 12:19:38;;;;;;;2.30;1.80;;;27.20;64.70;;;;;;4935125;29;20462;-86
2021/08/04 12:22:08;;;;;;;2.47;2.27;;;27.30;64.70;;;;;;4951833;29;20460;-86
2021/08/04 12:24:46;;;;;;;2.33;2.13;;;27.20;63.80;;;;;;4927403;29;20483;-86
2021/08/04 12:27:13;;;;;;;2.40;2.20;;;26.90;64.60;;;;;;4923660;29;20447;-84
2021/08/04 12:29:40;;;;;;;2.40;2.20;;;26.70;65.70;;;;;;4919449;29;20802;-84
2021/08/04 12:32:15;;;;;;;3.80;1.93;;;26.60;67.10;;;;;;4919282;29;20443;-85
2021/08/04 12:34:44;;;;;;;2.50;2.30;;;26.30;67.50;;;;;;4933102;29;20483;-86
2021/08/04 12:37:12;;;;;;;2.30;2.10;;;25.40;68.50;;;;;;4942124;29;20468;-86
2021/08/04 12:39:39;;;;;;;3.67;3.37;;;24.90;70.50;;;;;;4948582;29;20627;-85
2021/08/04 12:42:07;;;;;;;3.60;2.23;;;25.10;71.30;;;;;;4947599;29;20447;-85
2021/08/04 12:44:34;;;;;;;2.43;2.20;;;25.10;71.90;;;;;;4923640;29;20497;-83
2021/08/04 12:47:09;;;;;;;2.83;2.47;;;25.20;71.10;;;;;;4927734;29;20454;-86
2021/08/04 12:49:35;;;;;;;2.40;2.20;;;25.20;70.70;;;;;;4932171;29;20975;-85
2021/08/04 12:52:02;;;;;;;2.47;2.07;;;25.40;70.00;;;;;;4940598;29;20450;-84
2021/08/04 12:54:31;;;;;;;2.83;2.30;;;25.90;70.00;;;;;;4950218;29;20474;-84
2021/08/04 12:56:59;;;;;;;2.63;2.40;;;26.00;69.90;;;;;;4948179;29;20493;-84
2021/08/04 12:59:42;;;;;;;2.50;2.30;;;25.90;68.40;;;;;;4932040;29;20461;-84
2021/08/04 13:02:10;;;;;;;2.47;2.07;;;25.90;69.10;;;;;;4919006;29;20506;-83
2021/08/04 13:04:38;;;;;;;2.47;2.10;;;25.80;69.10;;;;;;4920145;29;20558;-84
2021/08/04 13:07:06;;;;;;;4.00;2.43;;;25.30;70.40;;;;;;4926804;29;20521;-84
2021/08/04 13:09:48;;;;;;;4.40;2.60;;;25.20;71.60;;;;;;4940342;29;20446;-84
2021/08/04 13:12:17;;;;;;;3.53;3.00;;;24.90;72.00;;;;;;4955678;29;20460;-84
2021/08/04 13:15:06;;;;;;;2.00;1.80;;;24.60;72.40;;;;;;4940489;29;20549;-84
2021/08/04 13:17:34;;;;;;;2.40;2.20;;;24.50;73.00;;;;;;4939762;29;20464;-83
2021/08/04 13:20:10;;;;;;;2.20;2.10;;;24.20;73.30;;;;;;4937769;29;20454;-84
2021/08/04 13:22:57;;;;;;;2.60;2.40;;;24.20;75.00;;;;;;4939164;29;20446;-85
2021/08/04 13:25:27;;;;;;;2.77;2.03;;;24.10;74.80;;;;;;4924317;29;20490;-84
2021/08/04 13:27:57;;;;;;;3.07;2.63;;;24.20;74.70;;;;;;4923598;29;20457;-84
2021/08/04 13:30:27;;;;;;;2.60;2.40;;;24.20;75.00;;;;;;4943614;29;20445;-84
2021/08/04 13:32:54;;;;;;;3.70;2.53;;;24.00;74.20;;;;;;4951466;29;20478;-84
2021/08/04 13:35:21;;;;;;;2.40;2.20;;;24.10;75.30;;;;;;4940182;29;20549;-84
2021/08/04 13:37:48;;;;;;;2.90;2.70;;;24.10;76.40;;;;;;4938156;29;20457;-85
2021/08/04 13:40:15;;;;;;;2.93;2.60;;;24.00;75.60;;;;;;4928412;29;20457;-84
2021/08/04 13:42:44;;;;;;;3.63;2.00;;;23.90;76.80;;;;;;4919679;29;20458;-83
2021/08/04 13:45:12;;;;;;;2.63;2.43;;;23.70;77.10;;;;;;4919918;29;20486;-85
2021/08/04 13:47:41;;;;;;;2.20;2.00;;;23.40;77.80;;;;;;4946564;29;20468;-82
2021/08/04 13:50:08;;;;;;;4.50;2.10;;;23.30;78.40;;;;;;4948272;29;20487;-84
2021/08/04 13:52:35;;;;;;;2.50;2.30;;;23.30;77.20;;;;;;4939364;29;20470;-83
2021/08/04 13:55:05;;;;;;;6.07;2.70;;;23.30;76.90;;;;;;4933829;29;20515;-85
2021/08/04 13:57:32;;;;;;;2.80;2.20;;;23.20;76.60;;;;;;4933054;29;20454;-83
2021/08/04 13:59:58;;;;;;;2.93;2.23;;;23.20;76.60;;;;;;4938900;29;20477;-84
2021/08/04 14:02:25;;;;;;;5.33;3.70;;;23.20;78.40;;;;;;4941417;29;20452;-84
2021/08/04 14:04:53;;;;;;;3.37;3.07;;;23.20;78.90;;;;;;4932832;29;20479;-86
2021/08/04 14:07:20;;;;;;;2.30;1.83;;;23.20;77.50;;;;;;4944393;29;20457;-85
2021/08/04 14:09:50;;;;;;;2.30;2.10;;;23.20;77.30;;;;;;4947042;29;20457;-83
2021/08/04 14:12:17;;;;;;;2.93;2.63;;;23.20;77.90;;;;;;4929793;29;20934;-84
2021/08/04 14:14:44;;;;;;;3.90;2.70;;;23.20;79.50;;;;;;4936880;29;20473;-83
2021/08/04 14:17:11;;;;;;;3.60;2.13;;;23.20;78.80;;;;;;4930518;29;20457;-84
2021/08/04 14:19:38;;;;;;;3.57;2.37;;;23.20;79.30;;;;;;4929527;29;20457;-84
2021/08/04 14:22:06;;;;;;;2.80;2.60;;;23.20;79.70;;;;;;4922735;29;20456;-85
2021/08/04 14:24:33;;;;;;;2.50;2.30;;;23.10;78.50;;;;;;4928573;29;20583;-83
2021/08/04 14:27:00;;;;;;;2.50;2.10;;;23.00;77.90;;;;;;4950271;29;20465;-82
2021/08/04 14:29:27;;;;;;;2.67;2.13;;;22.90;77.60;;;;;;4944451;29;20474;-84
2021/08/04 14:31:54;;;;;;;3.93;2.60;;;22.70;77.90;;;;;;4957766;29;20448;-83
2021/08/04 14:34:20;;;;;;;3.20;2.90;;;22.80;77.80;;;;;;4936543;29;21015;-84
2021/08/04 14:36:47;;;;;;;3.27;2.20;;;22.80;78.00;;;;;;4945022;29;20971;-84
2021/08/04 14:39:15;;;;;;;2.40;1.93;;;22.70;78.60;;;;;;4932098;29;20445;-83
2021/08/04 14:41:42;;;;;;;3.83;2.63;;;22.80;80.10;;;;;;4942080;29;20454;-84
2021/08/04 14:44:09;;;;;;;2.70;2.20;;;22.80;80.40;;;;;;4928739;29;20450;-82
2021/08/04 14:46:36;;;;;;;3.50;2.70;;;22.80;80.10;;;;;;4943203;29;20481;-83
2021/08/04 14:49:04;;;;;;;5.47;2.53;;;22.80;80.90;;;;;;4927760;29;20454;-83
2021/08/04 14:51:31;;;;;;;3.23;2.63;;;22.80;79.00;;;;;;4938674;29;20595;-84
2021/08/04 14:53:58;;;;;;;3.53;2.60;;;22.70;79.70;;;;;;4939673;29;20455;-86
2021/08/04 14:56:26;;;;;;;2.63;2.20;;;22.60;79.90;;;;;;4939829;29;20479;-84
2021/08/04 14:58:53;;;;;;;3.10;2.53;;;22.60;81.50;;;;;;4939747;29;21032;-83
2021/08/04 15:01:20;;;;;;;2.60;2.23;;;22.60;82.40;;;;;;4938926;29;20456;-83
2021/08/04 15:03:47;;;;;;;2.40;2.10;;;22.60;81.10;;;;;;4950280;29;20453;-81
2021/08/04 15:06:13;;;;;;;2.47;2.27;;;22.50;79.90;;;;;;4947932;29;20515;-83
2021/08/04 15:08:40;;;;;;;2.50;2.30;;;22.50;79.90;;;;;;4927128;29;20457;-82
2021/08/04 15:11:07;;;;;;;2.67;2.47;;;22.50;80.90;;;;;;4934360;29;20456;-81
2021/08/04 15:13:35;;;;;;;2.77;2.53;;;22.50;81.20;;;;;;4949093;29;20453;-80
2021/08/04 15:16:03;;;;;;;3.00;2.60;;;22.50;81.70;;;;;;4938445;29;20462;-82
2021/08/04 15:18:29;;;;;;;2.97;2.77;;;22.40;82.20;;;;;;4947308;29;20455;-80
2021/08/04 15:20:56;;;;;;;2.37;2.17;;;22.20;82.00;;;;;;4944501;29;20472;-82
2021/08/04 15:23:23;;;;;;;2.83;2.40;;;22.30;83.90;;;;;;4937536;29;21010;-81
2021/08/04 15:25:50;;;;;;;4.00;2.37;;;22.40;83.30;;;;;;4933021;29;20491;-83
2021/08/04 15:28:17;;;;;;;2.57;2.37;;;22.40;82.80;;;;;;4934637;29;20451;-83
2021/08/04 15:30:45;;;;;;;3.17;2.50;;;22.30;84.30;;;;;;4923307;29;20484;-85
2021/08/04 15:33:12;;;;;;;3.50;2.40;;;22.30;83.20;;;;;;4933411;29;20440;-82
2021/08/04 15:35:38;;;;;;;3.13;2.83;;;22.30;83.80;;;;;;4928897;29;20466;-84
2021/08/04 15:38:06;;;;;;;3.70;2.47;;;22.20;82.30;;;;;;4927016;29;20484;-83
2021/08/04 15:40:33;;;;;;;2.20;2.00;;;22.30;82.30;;;;;;4937829;29;21049;-85
2021/08/04 15:43:00;;;;;;;6.50;2.40;;;22.30;82.70;;;;;;4940625;29;20444;-84
2021/08/04 15:45:27;;;;;;;4.60;2.47;;;22.30;81.30;;;;;;4932064;29;20489;-85
2021/08/04 15:47:55;;;;;;;2.97;2.77;;;22.30;81.90;;;;;;4932548;29;20467;-84
2021/08/04 15:50:22;;;;;;;3.47;3.17;;;22.30;82.20;;;;;;4939012;29;20503;-85
2021/08/04 15:52:48;;;;;;;4.97;2.40;;;22.30;82.90;;;;;;4923338;29;20940;-83
2021/08/04 15:55:15;;;;;;;3.67;2.70;;;22.40;82.50;;;;;;4933575;29;20567;-83
2021/08/04 15:57:42;;;;;;;2.87;2.47;;;22.30;84.00;;;;;;4931432;29;20458;-83
2021/08/04 16:00:11;;;;;;;2.63;2.40;;;22.40;83.40;;;;;;4939174;29;20448;-83
2021/08/04 16:02:39;;;;;;;3.10;2.60;;;22.40;83.70;;;;;;4934908;29;20514;-83
2021/08/04 16:05:08;;;;;;;3.20;2.90;;;22.40;83.00;;;;;;4935267;29;20504;-83
2021/08/04 16:07:35;;;;;;;2.97;2.67;;;22.40;83.00;;;;;;4928897;29;20448;-83
2021/08/04 16:10:01;;;;;;;4.13;3.73;;;22.40;82.70;;;;;;4940127;29;20459;-83
2021/08/04 16:12:29;;;;;;;3.67;3.00;;;22.40;82.70;;;;;;4921934;29;20453;-83
2021/08/04 16:14:56;;;;;;;3.07;2.40;;;22.40;83.00;;;;;;4933780;29;20535;-83
2021/08/04 16:17:23;;;;;;;2.60;2.40;;;22.40;83.00;;;;;;4926677;29;20456;-84
2021/08/04 16:19:50;;;;;;;2.33;2.10;;;22.40;83.70;;;;;;4939272;29;20516;-83
2021/08/04 16:22:18;;;;;;;3.00;2.80;;;22.30;83.70;;;;;;4930920;29;20448;-83
2021/08/04 16:24:44;;;;;;;2.50;2.30;;;22.30;85.60;;;;;;4936940;29;20476;-84
2021/08/04 16:27:11;;;;;;;2.93;2.63;;;22.40;85.70;;;;;;4929724;29;20493;-85
2021/08/04 16:29:38;;;;;;;3.60;2.60;;;22.60;84.20;;;;;;4919657;29;20454;-84
2021/08/04 16:32:07;;;;;;;2.47;2.27;;;22.60;84.90;;;;;;4934876;29;20456;-84
2021/08/04 16:34:36;;;;;;;2.50;2.30;;;22.60;83.00;;;;;;4922175;29;20477;-85
2021/08/04 16:37:03;;;;;;;6.23;2.47;;;22.50;84.10;;;;;;4932325;29;20457;-82
2021/08/04 16:39:31;;;;;;;3.00;2.43;;;22.60;83.00;;;;;;4927011;29;20453;-84
2021/08/04 16:41:58;;;;;;;3.13;2.83;;;22.60;83.50;;;;;;4937936;29;20457;-84
2021/08/04 16:44:25;;;;;;;2.43;2.23;;;22.60;83.60;;;;;;4950049;29;20537;-80
2021/08/04 16:46:52;;;;;;;2.90;2.60;;;22.70;83.40;;;;;;4946249;28;20563;-82
2021/08/04 16:49:18;;;;;;;3.10;2.33;;;22.60;82.60;;;;;;4934677;29;20528;-82
2021/08/04 16:51:50;;;;;;;2.97;2.67;;;22.30;82.80;;;;;;4944570;29;20459;-82
2021/08/04 16:54:17;;;;;;;2.73;2.47;;;22.30;83.30;;;;;;4934404;29;20464;-83
2021/08/04 16:56:45;;;;;;;2.10;1.90;;;22.30;84.20;;;;;;4931424;29;20798;-82
2021/08/04 16:59:15;;;;;;;2.23;2.03;;;22.40;85.60;;;;;;4928755;29;20552;-84
2021/08/04 17:01:44;;;;;;;4.93;2.80;;;22.30;86.80;;;;;;4936523;29;20545;-82
2021/08/04 17:04:12;;;;;;;4.13;2.60;;;22.10;89.50;;;;;;4923585;29;20500;-82
2021/08/04 17:06:40;;;;;;;3.13;2.13;;;22.00;90.70;;;;;;4920684;29;20520;-83
2021/08/04 17:09:07;;;;;;;2.70;2.50;;;21.80;91.60;;;;;;4930495;29;20858;-85
2021/08/04 17:11:34;;;;;;;2.93;2.40;;;21.60;92.40;;;;;;4939971;29;20450;-82
2021/08/04 17:14:02;;;;;;;4.23;2.67;;;21.50;93.00;;;;;;4922143;29;20962;-85
2021/08/04 17:16:29;;;;;;;3.07;2.33;;;21.50;92.90;;;;;;4929043;29;21018;-84
2021/08/04 17:18:56;;;;;;;2.60;2.40;;;21.40;93.20;;;;;;4918104;29;20489;-84
2021/08/04 17:21:24;;;;;;;3.90;2.67;;;21.40;93.80;;;;;;4935483;29;20457;-84
2021/08/04 17:23:50;;;;;;;2.30;2.10;;;21.20;94.00;;;;;;4923380;29;20481;-83
2021/08/04 17:26:17;;;;;;;3.43;3.10;;;21.20;94.40;;;;;;4937458;29;20489;-84
2021/08/04 17:28:44;;;;;;;4.10;2.97;;;21.20;94.40;;;;;;4926734;29;20450;-82
2021/08/04 17:31:12;;;;;;;4.67;2.60;;;21.10;94.30;;;;;;4942905;29;20450;-81
2021/08/04 17:33:38;;;;;;;3.13;2.63;;;21.10;95.10;;;;;;4947974;29;20457;-84
2021/08/04 17:36:05;;;;;;;2.63;2.43;;;21.00;95.40;;;;;;4951560;29;20575;-83
2021/08/04 17:38:32;;;;;;;7.73;2.93;;;21.00;95.60;;;;;;4954054;29;20460;-81
2021/08/04 17:40:59;;;;;;;2.53;2.33;;;21.00;95.90;;;;;;4936261;29;20454;-83
2021/08/04 17:43:25;;;;;;;2.87;2.67;;;21.00;95.90;;;;;;4924207;29;20501;-84
2021/08/04 17:45:52;;;;;;;3.70;2.63;;;20.90;96.30;;;;;;4927602;29;20832;-84
2021/08/04 17:48:20;;;;;;;2.77;2.50;;;20.90;96.50;;;;;;4936265;29;20446;-84
2021/08/04 17:50:47;;;;;;;2.80;2.40;;;20.80;96.80;;;;;;4933768;29;20456;-83
2021/08/04 17:53:14;;;;;;;2.83;2.47;;;20.80;97.10;;;;;;4929539;29;20453;-84
2021/08/04 17:55:40;;;;;;;2.87;2.57;;;20.80;97.40;;;;;;4938941;29;20480;-83
2021/08/04 17:58:07;;;;;;;3.80;2.67;;;20.70;97.60;;;;;;4934902;29;20449;-81
2021/08/04 18:00:34;;;;;;;3.93;3.10;;;20.60;97.50;;;;;;4927939;29;20446;-83
2021/08/04 18:03:01;;;;;;;4.60;2.70;;;20.40;97.40;;;;;;4930857;29;20500;-83
2021/08/04 18:05:29;;;;;;;3.87;2.53;;;20.30;97.40;;;;;;4933060;29;20461;-84
2021/08/04 18:07:56;;;;;;;3.67;2.50;;;20.30;97.50;;;;;;4930913;29;20508;-83
2021/08/04 18:10:22;;;;;;;2.30;2.10;;;20.20;97.50;;;;;;4932143;29;20452;-84
2021/08/04 18:12:49;;;;;;;2.83;2.20;;;20.20;98.00;;;;;;4939395;29;20467;-85
2021/08/04 18:15:16;;;;;;;3.77;3.03;;;20.20;98.20;;;;;;4993063;23;20483;-87
2021/08/04 18:17:42;;;;;;;2.80;2.50;;;20.20;98.70;;;;;;4988436;28;20442;-88
2021/08/04 18:20:12;;;;;;;3.20;2.60;;;20.30;98.70;;;;;;4987191;28;20514;-88
2021/08/04 18:22:41;;;;;;;3.07;2.77;;;20.20;98.20;;;;;;4967413;28;20557;-88
2021/08/04 18:25:10;;;;;;;3.40;3.10;;;20.20;98.60;;;;;;4948154;29;20996;-88
2021/08/04 18:27:37;;;;;;;2.80;2.50;;;20.20;98.80;;;;;;4941356;29;21269;-89
2021/08/04 18:30:05;;;;;;;4.53;2.40;;;20.20;99.40;;;;;;4943655;28;20526;-88
2021/08/04 18:32:32;;;;;;;3.23;2.83;;;20.20;99.20;;;;;;4959176;28;20451;-89
2021/08/04 18:34:58;;;;;;;3.40;2.50;;;20.20;99.60;;;;;;4958378;28;20538;-88
2021/08/04 18:37:25;;;;;;;4.27;3.17;;;20.20;99.60;;;;;;4959283;28;20888;-89
2021/08/04 18:39:53;;;;;;;3.70;2.13;;;20.20;99.80;;;;;;4960941;28;20448;-89
2021/08/04 18:42:20;;;;;;;3.30;2.50;;;20.20;99.80;;;;;;4972079;28;20531;-88
2021/08/04 18:44:47;;;;;;;3.63;3.07;;;20.20;99.90;;;;;;4977525;28;20570;-89
2021/08/04 18:47:14;;;;;;;3.23;2.93;;;20.20;99.90;;;;;;4973781;29;20480;-91
2021/08/04 18:49:41;;;;;;;2.30;2.10;;;20.10;99.90;;;;;;4971429;28;20447;-90
2021/08/04 18:52:08;;;;;;;2.53;2.30;;;20.10;99.90;;;;;;4962264;28;20440;-89
2021/08/04 18:54:35;;;;;;;3.03;2.47;;;20.10;99.90;;;;;;4962492;28;20589;-89
2021/08/04 18:57:03;;;;;;;3.10;2.90;;;20.10;99.90;;;;;;4966867;28;20452;-90